createdAt,value
2022-11-01T00:00:31.315Z,9.745624
2022-11-01T00:01:31.413Z,9.745295
2022-11-01T00:02:31.330Z,9.745491
2022-11-01T00:03:31.290Z,9.745380
2022-11-01T00:04:31.306Z,9.745384
2022-11-01T00:05:31.276Z,9.745227
2022-11-01T00:06:31.267Z,9.745192
2022-11-01T00:07:31.259Z,9.744945
2022-11-01T00:08:31.247Z,9.745361
2022-11-01T00:09:31.267Z,9.745474
2022-11-01T00:10:31.231Z,9.745500
2022-11-01T00:11:31.231Z,9.745153
2022-11-01T00:12:31.223Z,9.745360
2022-11-01T00:13:31.215Z,9.745519
2022-11-01T00:14:31.235Z,9.745382
2022-11-01T00:15:31.201Z,9.745280
2022-11-01T00:16:31.198Z,9.745116
2022-11-01T00:17:31.183Z,9.745182
2022-11-01T00:18:31.182Z,9.745462
2022-11-01T00:19:31.188Z,9.745493
2022-11-01T00:20:31.161Z,9.745699
2022-11-01T00:21:31.150Z,9.745647
2022-11-01T00:22:31.143Z,9.745257
2022-11-01T00:23:31.133Z,9.745257
2022-11-01T00:24:31.150Z,9.745312
2022-11-01T00:25:31.120Z,9.745591
2022-11-01T00:26:31.118Z,9.745594
2022-11-01T00:27:31.102Z,9.745467
2022-11-01T00:28:31.094Z,9.745295
2022-11-01T00:29:31.111Z,9.745282
2022-11-01T00:30:31.078Z,9.744991
2022-11-01T00:31:31.066Z,9.745365
2022-11-01T00:32:31.067Z,9.745749
2022-11-01T00:33:31.056Z,9.745470
2022-11-01T00:34:31.070Z,9.745240
2022-11-01T00:35:31.032Z,9.745476
2022-11-01T00:36:31.034Z,9.745463
2022-11-01T00:37:31.021Z,9.745574
2022-11-01T00:38:31.018Z,9.745554
2022-11-01T00:39:31.598Z,9.745378
2022-11-01T00:40:31.000Z,9.745405
2022-11-01T00:41:31.001Z,9.745332
2022-11-01T00:42:30.983Z,9.745414
2022-11-01T00:43:30.978Z,9.745487
2022-11-01T00:44:30.994Z,9.745255
2022-11-01T00:45:30.954Z,9.745417
2022-11-01T00:46:30.945Z,9.745538
2022-11-01T00:47:30.940Z,9.745579
2022-11-01T00:48:30.931Z,9.745571
2022-11-01T00:49:30.950Z,9.745729
2022-11-01T00:50:30.912Z,9.745685
2022-11-01T00:51:30.905Z,9.745555
2022-11-01T00:52:30.901Z,9.745508
2022-11-01T00:53:30.894Z,9.745538
2022-11-01T00:54:30.918Z,9.745309
2022-11-01T00:55:30.879Z,9.745472
2022-11-01T00:56:30.870Z,9.745491
2022-11-01T00:57:30.866Z,9.745372
2022-11-01T00:58:30.858Z,9.745290
2022-11-01T00:59:30.874Z,9.745363
2022-11-01T01:00:30.845Z,9.745370
2022-11-01T01:01:30.899Z,9.745477
2022-11-01T01:02:30.918Z,9.745499
2022-11-01T01:03:30.821Z,9.745320
2022-11-01T01:04:30.834Z,9.745569
2022-11-01T01:05:30.807Z,9.745577
2022-11-01T01:06:30.795Z,9.745601
2022-11-01T01:07:30.790Z,9.745590
2022-11-01T01:08:30.784Z,9.745543
2022-11-01T01:09:30.802Z,9.745136
2022-11-01T01:10:30.766Z,9.745154
2022-11-01T01:11:30.756Z,9.745261
2022-11-01T01:12:30.749Z,9.745305
2022-11-01T01:13:30.744Z,9.745304
2022-11-01T01:14:32.439Z,9.745292
2022-11-01T01:15:30.750Z,9.745394
2022-11-01T01:16:30.772Z,9.745148
2022-11-01T01:17:33.633Z,9.744841
2022-11-01T01:18:30.706Z,9.744841
2022-11-01T01:19:30.721Z,9.744934
2022-11-01T01:20:30.687Z,9.745096
2022-11-01T01:21:30.680Z,9.745243
2022-11-01T01:22:30.669Z,9.745158
2022-11-01T01:23:30.663Z,9.745211
2022-11-01T01:24:30.694Z,9.745360
2022-11-01T01:25:30.656Z,9.745354
2022-11-01T01:26:30.637Z,9.744886
2022-11-01T01:27:30.629Z,9.744583
2022-11-01T01:28:30.634Z,9.744848
2022-11-01T01:29:30.646Z,9.745404
2022-11-01T01:30:30.601Z,9.745266
2022-11-01T01:31:31.606Z,9.745437
2022-11-01T01:32:30.599Z,9.745591
2022-11-01T01:33:30.597Z,9.745273
2022-11-01T01:34:30.585Z,9.745364
2022-11-01T01:35:30.603Z,9.745721
2022-11-01T01:36:30.568Z,9.745567
2022-11-01T01:37:30.559Z,9.745438
2022-11-01T01:38:30.553Z,9.745351
2022-11-01T01:39:30.544Z,9.745576
2022-11-01T01:40:30.564Z,9.745592
2022-11-01T01:41:30.529Z,9.745533
2022-11-01T01:42:30.527Z,9.745515
2022-11-01T01:43:30.516Z,9.745444
2022-11-01T01:44:30.495Z,9.745537
2022-11-01T01:45:31.535Z,9.745514
2022-11-01T01:46:30.497Z,9.745477
2022-11-01T01:47:30.483Z,9.745480
2022-11-01T01:48:30.480Z,9.745522
2022-11-01T01:49:30.524Z,9.745696
2022-11-01T01:50:30.483Z,9.745592
2022-11-01T01:51:30.445Z,9.745590
2022-11-01T01:52:31.448Z,9.745609
2022-11-01T01:53:30.439Z,9.745530
2022-11-01T01:54:30.433Z,9.745646
2022-11-01T01:55:30.442Z,9.745527
2022-11-01T01:56:31.401Z,9.745422
2022-11-01T01:57:31.410Z,9.745594
2022-11-01T01:58:30.402Z,9.745704
2022-11-01T01:59:30.389Z,9.745589
2022-11-01T02:00:30.410Z,9.745334
2022-11-01T02:01:30.459Z,9.745357
2022-11-01T02:02:30.372Z,9.745710
2022-11-01T02:03:30.358Z,9.745659
2022-11-01T02:04:30.349Z,9.745577
2022-11-01T02:05:30.364Z,9.745410
2022-11-01T02:06:30.338Z,9.745403
2022-11-01T02:07:30.332Z,9.745576
2022-11-01T02:08:30.315Z,9.745605
2022-11-01T02:09:31.812Z,9.745604
2022-11-01T02:10:30.319Z,9.745494
2022-11-01T02:11:31.293Z,9.745615
2022-11-01T02:12:30.284Z,9.745708
2022-11-01T02:13:30.286Z,9.745523
2022-11-01T02:14:30.270Z,9.745715
2022-11-01T02:15:30.282Z,9.745548
2022-11-01T02:16:30.252Z,9.745401
2022-11-01T02:17:30.247Z,9.745498
2022-11-01T02:18:30.238Z,9.745471
2022-11-01T02:19:30.229Z,9.745429
2022-11-01T02:20:30.240Z,9.745396
2022-11-01T02:21:30.209Z,9.745603
2022-11-01T02:22:30.203Z,9.745558
2022-11-01T02:23:30.194Z,9.745531
2022-11-01T02:24:30.188Z,9.745472
2022-11-01T02:25:30.205Z,9.745355
2022-11-01T02:26:30.172Z,9.745362
2022-11-01T02:27:30.162Z,9.745451
2022-11-01T02:28:30.155Z,9.745481
2022-11-01T02:29:30.153Z,9.745274
2022-11-01T02:30:30.169Z,9.745334
2022-11-01T02:31:30.133Z,9.745475
2022-11-01T02:32:30.126Z,9.745548
2022-11-01T02:33:30.125Z,9.745545
2022-11-01T02:34:30.109Z,9.745802
2022-11-01T02:35:30.132Z,9.745495
2022-11-01T02:36:30.092Z,9.745177
2022-11-01T02:37:30.085Z,9.745308
2022-11-01T02:38:30.078Z,9.745436
2022-11-01T02:39:30.070Z,9.745646
2022-11-01T02:40:30.088Z,9.745676
2022-11-01T02:41:30.058Z,9.745440
2022-11-01T02:42:30.043Z,9.745421
2022-11-01T02:43:30.036Z,9.745446
2022-11-01T02:44:30.032Z,9.745101
2022-11-01T02:45:30.047Z,9.744856
2022-11-01T02:46:30.014Z,9.745042
2022-11-01T02:47:30.004Z,9.745462
2022-11-01T02:48:29.998Z,9.745712
2022-11-01T02:49:29.994Z,9.745599
2022-11-01T02:50:30.006Z,9.745859
2022-11-01T02:51:29.976Z,9.745714
2022-11-01T02:52:29.967Z,9.745646
2022-11-01T02:53:29.963Z,9.745660
2022-11-01T02:54:29.959Z,9.745576
2022-11-01T02:55:30.494Z,9.745558
2022-11-01T02:56:29.935Z,9.745545
2022-11-01T02:57:29.924Z,9.745611
2022-11-01T02:58:29.921Z,9.745677
2022-11-01T02:59:29.910Z,9.745716
2022-11-01T03:00:29.939Z,9.745670
2022-11-01T03:01:30.068Z,9.745601
2022-11-01T03:02:29.888Z,9.745600
2022-11-01T03:03:29.877Z,9.745635
2022-11-01T03:04:29.869Z,9.745482
2022-11-01T03:05:29.862Z,9.745353
2022-11-01T03:06:29.877Z,9.745771
2022-11-01T03:07:29.844Z,9.745780
2022-11-01T03:08:29.836Z,9.745751
2022-11-01T03:09:29.831Z,9.745650
2022-11-01T03:10:29.822Z,9.745593
2022-11-01T03:11:29.839Z,9.745600
2022-11-01T03:13:29.800Z,9.745505
2022-11-01T03:14:29.793Z,9.745617
2022-11-01T03:15:29.785Z,9.745723
2022-11-01T03:16:29.800Z,9.745644
2022-11-01T03:17:29.767Z,9.745475
2022-11-01T03:18:29.767Z,9.745584
2022-11-01T03:19:29.759Z,9.745568
2022-11-01T03:20:29.750Z,9.745388
2022-11-01T03:21:29.764Z,9.745302
2022-11-01T03:22:29.731Z,9.745211
2022-11-01T03:23:29.721Z,9.745142
2022-11-01T03:24:29.717Z,9.744419
2022-11-01T03:25:29.707Z,9.745105
2022-11-01T03:26:29.726Z,9.745462
2022-11-01T03:27:29.692Z,9.745489
2022-11-01T03:28:29.689Z,9.745644
2022-11-01T03:29:29.677Z,9.745490
2022-11-01T03:30:29.671Z,9.745329
2022-11-01T03:31:29.696Z,9.745423
2022-11-01T03:32:29.653Z,9.745356
2022-11-01T03:33:29.637Z,9.745662
2022-11-01T03:34:30.639Z,9.745562
2022-11-01T03:35:29.632Z,9.745530
2022-11-01T03:36:29.649Z,9.745461
2022-11-01T03:37:29.616Z,9.745373
2022-11-01T03:38:29.609Z,9.745543
2022-11-01T03:39:29.601Z,9.745591
2022-11-01T03:40:29.584Z,9.745302
2022-11-01T03:41:30.607Z,9.745464
2022-11-01T03:42:29.580Z,9.745577
2022-11-01T03:43:29.570Z,9.745576
2022-11-01T03:44:29.561Z,9.745234
2022-11-01T03:45:29.556Z,9.745215
2022-11-01T03:46:29.575Z,9.745474
2022-11-01T03:47:29.534Z,9.745498
2022-11-01T03:48:29.525Z,9.745499
2022-11-01T03:49:29.521Z,9.745509
2022-11-01T03:50:29.517Z,9.745593
2022-11-01T03:51:29.530Z,9.745530
2022-11-01T03:52:29.499Z,9.745499
2022-11-01T03:53:29.494Z,9.745613
2022-11-01T03:54:29.484Z,9.745518
2022-11-01T03:55:29.472Z,9.745500
2022-11-01T03:56:29.466Z,9.745461
2022-11-01T03:57:29.481Z,9.745472
2022-11-01T03:58:29.448Z,9.745501
2022-11-01T03:59:29.443Z,9.745590
2022-11-01T04:00:29.429Z,9.745564
2022-11-01T04:01:29.513Z,9.745483
2022-11-01T04:02:29.440Z,9.745394
2022-11-01T04:03:29.412Z,9.745506
2022-11-01T04:04:29.396Z,9.745589
2022-11-01T04:05:29.400Z,9.745567
2022-11-01T04:06:29.380Z,9.745508
2022-11-01T04:07:29.397Z,9.745522
2022-11-01T04:08:29.361Z,9.745661
2022-11-01T04:09:29.364Z,9.745612
2022-11-01T04:10:29.368Z,9.745500
2022-11-01T04:11:29.347Z,9.745709
2022-11-01T04:12:29.365Z,9.745728
2022-11-01T04:13:29.330Z,9.745655
2022-11-01T04:14:29.326Z,9.745487
2022-11-01T04:15:29.311Z,9.745363
2022-11-01T04:16:29.309Z,9.745509
2022-11-01T04:17:29.327Z,9.745469
2022-11-01T04:18:29.357Z,9.745452
2022-11-01T04:19:29.294Z,9.745474
2022-11-01T04:20:29.275Z,9.745378
2022-11-01T04:21:29.265Z,9.745484
2022-11-01T04:22:29.287Z,9.745519
2022-11-01T04:23:29.251Z,9.745510
2022-11-01T04:24:29.243Z,9.745598
2022-11-01T04:25:29.238Z,9.745603
2022-11-01T04:26:29.228Z,9.745569
2022-11-01T04:27:29.247Z,9.745427
2022-11-01T04:28:29.212Z,9.745420
2022-11-01T04:29:29.206Z,9.745515
2022-11-01T04:30:29.199Z,9.745506
2022-11-01T04:31:29.192Z,9.745597
2022-11-01T04:32:29.207Z,9.745371
2022-11-01T04:33:29.175Z,9.745367
2022-11-01T04:34:29.164Z,9.745522
2022-11-01T04:35:29.162Z,9.745489
2022-11-01T04:36:29.149Z,9.745634
2022-11-01T04:37:29.168Z,9.745655
2022-11-01T04:38:29.131Z,9.745461
2022-11-01T04:39:29.128Z,9.745367
2022-11-01T04:40:29.118Z,9.745476
2022-11-01T04:41:29.107Z,9.745461
2022-11-01T04:42:29.127Z,9.745337
2022-11-01T04:43:29.094Z,9.745436
2022-11-01T04:44:29.083Z,9.745453
2022-11-01T04:45:29.077Z,9.745282
2022-11-01T04:46:29.068Z,9.745075
2022-11-01T04:47:29.087Z,9.745180
2022-11-01T04:48:29.047Z,9.745153
2022-11-01T04:49:30.042Z,9.745420
2022-11-01T04:50:29.042Z,9.745320
2022-11-01T04:51:29.167Z,9.745427
2022-11-01T04:52:29.022Z,9.745270
2022-11-01T04:53:29.040Z,9.745193
2022-11-01T04:54:29.007Z,9.745375
2022-11-01T04:55:28.998Z,9.745375
2022-11-01T04:56:28.992Z,9.745391
2022-11-01T04:57:28.984Z,9.745364
2022-11-01T04:58:29.005Z,9.745400
2022-11-01T04:59:28.972Z,9.745370
2022-11-01T05:00:28.962Z,9.745236
2022-11-01T05:01:29.042Z,9.745090
2022-11-01T05:02:28.946Z,9.745212
2022-11-01T05:03:28.964Z,9.745255
2022-11-01T05:04:28.935Z,9.745441
2022-11-01T05:05:28.919Z,9.745675
2022-11-01T05:06:28.920Z,9.745330
2022-11-01T05:07:28.913Z,9.745592
2022-11-01T05:08:28.924Z,9.745444
2022-11-01T05:09:30.109Z,9.745458
2022-11-01T05:10:28.886Z,9.745567
2022-11-01T05:11:28.873Z,9.745526
2022-11-01T05:12:28.862Z,9.745466
2022-11-01T05:13:28.878Z,9.745618
2022-11-01T05:14:28.877Z,9.745633
2022-11-01T05:15:28.843Z,9.745665
2022-11-01T05:16:28.838Z,9.745841
2022-11-01T05:17:28.833Z,9.745936
2022-11-01T05:18:28.844Z,9.745713
2022-11-01T05:19:28.814Z,9.745983
2022-11-01T05:20:28.797Z,9.745667
2022-11-01T05:21:28.790Z,9.745549
2022-11-01T05:22:28.783Z,9.745457
2022-11-01T05:23:28.799Z,9.745356
2022-11-01T05:24:28.815Z,9.745528
2022-11-01T05:25:29.755Z,9.745455
2022-11-01T05:26:28.758Z,9.745326
2022-11-01T05:27:28.756Z,9.745600
2022-11-01T05:28:28.770Z,9.745626
2022-11-01T05:29:32.864Z,9.745513
2022-11-01T05:30:29.725Z,9.745621
2022-11-01T05:31:28.713Z,9.745914
2022-11-01T05:32:28.707Z,9.745897
2022-11-01T05:33:28.726Z,9.745662
2022-11-01T05:34:28.685Z,9.745591
2022-11-01T05:35:28.685Z,9.745390
2022-11-01T05:36:28.674Z,9.745481
2022-11-01T05:37:28.668Z,9.745404
2022-11-01T05:38:28.689Z,9.745547
2022-11-01T05:39:28.651Z,9.745536
2022-11-01T05:40:28.641Z,9.745507
2022-11-01T05:41:28.641Z,9.745387
2022-11-01T05:42:28.631Z,9.745224
2022-11-01T05:43:28.647Z,9.745220
2022-11-01T05:44:28.617Z,9.745691
2022-11-01T05:45:28.607Z,9.745468
2022-11-01T05:46:28.597Z,9.745410
2022-11-01T05:47:28.586Z,9.745536
2022-11-01T05:48:28.614Z,9.745479
2022-11-01T05:49:28.576Z,9.745464
2022-11-01T05:50:28.563Z,9.745480
2022-11-01T05:51:28.555Z,9.745766
2022-11-01T05:52:29.552Z,9.745514
2022-11-01T05:53:28.574Z,9.745108
2022-11-01T05:54:28.533Z,9.745637
2022-11-01T05:55:28.535Z,9.745734
2022-11-01T05:56:28.519Z,9.745564
2022-11-01T05:57:33.169Z,9.745317
2022-11-01T05:58:30.972Z,9.745474
2022-11-01T05:59:29.498Z,9.745704
2022-11-01T06:00:28.536Z,9.745295
2022-11-01T06:01:28.524Z,9.745226
2022-11-01T06:02:28.491Z,9.745476
2022-11-01T06:03:28.488Z,9.745461
2022-11-01T06:04:28.466Z,9.745429
2022-11-01T06:05:28.453Z,9.745596
2022-11-01T06:06:28.441Z,9.745553
2022-11-01T06:07:28.443Z,9.745642
2022-11-01T06:08:28.450Z,9.745554
2022-11-01T06:09:28.417Z,9.745459
2022-11-01T06:10:28.421Z,9.745473
2022-11-01T06:11:28.400Z,9.745582
2022-11-01T06:12:28.389Z,9.745457
2022-11-01T06:13:28.412Z,9.745533
2022-11-01T06:14:28.420Z,9.745546
2022-11-01T06:15:28.372Z,9.745419
2022-11-01T06:16:28.358Z,9.745436
2022-11-01T06:17:28.354Z,9.745488
2022-11-01T06:18:28.368Z,9.745469
2022-11-01T06:19:28.352Z,9.745701
2022-11-01T06:20:28.326Z,9.746228
2022-11-01T06:21:30.110Z,9.746087
2022-11-01T06:22:28.313Z,9.745857
2022-11-01T06:23:28.328Z,9.745825
2022-11-01T06:24:28.302Z,9.745792
2022-11-01T06:25:28.308Z,9.745605
2022-11-01T06:26:28.279Z,9.745501
2022-11-01T06:27:28.277Z,9.745618
2022-11-01T06:28:28.293Z,9.745485
2022-11-01T06:29:28.259Z,9.745571
2022-11-01T06:30:28.245Z,9.745625
2022-11-01T06:31:28.240Z,9.745665
2022-11-01T06:32:28.233Z,9.745529
2022-11-01T06:33:28.250Z,9.745575
2022-11-01T06:34:28.229Z,9.745603
2022-11-01T06:35:28.210Z,9.745674
2022-11-01T06:36:28.194Z,9.745559
2022-11-01T06:37:28.197Z,9.745538
2022-11-01T06:38:28.213Z,9.745593
2022-11-01T06:39:28.177Z,9.745688
2022-11-01T06:40:28.165Z,9.745541
2022-11-01T06:41:28.156Z,9.745739
2022-11-01T06:42:28.150Z,9.745780
2022-11-01T06:43:28.178Z,9.745618
2022-11-01T06:44:28.136Z,9.745686
2022-11-01T06:45:28.128Z,9.745584
2022-11-01T06:46:28.119Z,9.745359
2022-11-01T06:47:28.155Z,9.745374
2022-11-01T06:48:28.134Z,9.745228
2022-11-01T06:49:28.091Z,9.745340
2022-11-01T06:50:28.082Z,9.745390
2022-11-01T06:51:28.074Z,9.745644
2022-11-01T06:52:28.077Z,9.745594
2022-11-01T06:53:28.088Z,9.745374
2022-11-01T06:54:28.049Z,9.745573
2022-11-01T06:55:28.050Z,9.745487
2022-11-01T06:56:28.076Z,9.745604
2022-11-01T06:57:28.030Z,9.745506
2022-11-01T06:58:28.056Z,9.745410
2022-11-01T06:59:28.024Z,9.745588
2022-11-01T07:00:28.005Z,9.745331
2022-11-01T07:01:28.090Z,9.745511
2022-11-01T07:02:29.989Z,9.745527
2022-11-01T07:03:29.013Z,9.745559
2022-11-01T07:04:27.971Z,9.745529
2022-11-01T07:05:30.367Z,9.745693
2022-11-01T07:06:28.950Z,9.745625
2022-11-01T07:07:27.953Z,9.745934
2022-11-01T07:08:27.972Z,9.745840
2022-11-01T07:09:27.929Z,9.745624
2022-11-01T07:10:27.924Z,9.745655
2022-11-01T07:11:31.518Z,9.745472
2022-11-01T07:12:28.914Z,9.745465
2022-11-01T07:13:27.930Z,9.745347
2022-11-01T07:14:27.896Z,9.745642
2022-11-01T07:15:27.891Z,9.745481
2022-11-01T07:16:27.874Z,9.745443
2022-11-01T07:17:27.868Z,9.745527
2022-11-01T07:18:27.895Z,9.745339
2022-11-01T07:19:27.849Z,9.745470
2022-11-01T07:20:27.843Z,9.745309
2022-11-01T07:21:27.838Z,9.745331
2022-11-01T07:22:27.834Z,9.745535
2022-11-01T07:23:27.853Z,9.745532
2022-11-01T07:24:28.818Z,9.745415
2022-11-01T07:25:27.808Z,9.745434
2022-11-01T07:26:27.804Z,9.745259
2022-11-01T07:27:27.794Z,9.745344
2022-11-01T07:28:27.823Z,9.745497
2022-11-01T07:29:27.781Z,9.745460
2022-11-01T07:30:27.772Z,9.745403
2022-11-01T07:31:27.765Z,9.745372
2022-11-01T07:32:27.760Z,9.745456
2022-11-01T07:33:27.770Z,9.745341
2022-11-01T07:34:27.742Z,9.745399
2022-11-01T07:35:27.729Z,9.745564
2022-11-01T07:36:27.720Z,9.745428
2022-11-01T07:38:28.739Z,9.745547
2022-11-01T07:39:27.699Z,9.745697
2022-11-01T07:40:27.958Z,9.745571
2022-11-01T07:41:27.686Z,9.745617
2022-11-01T07:42:27.672Z,9.745678
2022-11-01T07:43:27.694Z,9.745584
2022-11-01T07:44:27.658Z,9.745546
2022-11-01T07:45:27.645Z,9.745641
2022-11-01T07:46:27.644Z,9.745531
2022-11-01T07:47:27.634Z,9.745501
2022-11-01T07:48:27.656Z,9.745399
2022-11-01T07:49:27.643Z,9.745510
2022-11-01T07:50:27.613Z,9.745669
2022-11-01T07:51:27.602Z,9.745714
2022-11-01T07:52:27.593Z,9.745778
2022-11-01T07:53:27.621Z,9.745527
2022-11-01T07:54:27.586Z,9.745466
2022-11-01T07:55:27.579Z,9.745456
2022-11-01T07:56:27.569Z,9.745563
2022-11-01T07:57:27.562Z,9.745622
2022-11-01T07:58:27.554Z,9.745342
2022-11-01T07:59:27.565Z,9.745511
2022-11-01T08:00:27.735Z,9.745624
2022-11-01T08:01:27.663Z,9.745665
2022-11-01T08:02:27.629Z,9.745404
2022-11-01T08:03:27.517Z,9.745269
2022-11-01T08:04:27.530Z,9.745751
2022-11-01T08:05:27.498Z,9.745359
2022-11-01T08:06:27.496Z,9.745277
2022-11-01T08:07:27.484Z,9.745432
2022-11-01T08:08:27.470Z,9.745614
2022-11-01T08:09:27.491Z,9.745424
2022-11-01T08:10:27.464Z,9.745277
2022-11-01T08:11:27.448Z,9.745597
2022-11-01T08:12:27.443Z,9.745538
2022-11-01T08:13:27.428Z,9.745625
2022-11-01T08:14:27.457Z,9.745966
2022-11-01T08:15:27.417Z,9.746103
2022-11-01T08:16:27.467Z,9.745864
2022-11-01T08:17:27.394Z,9.745711
2022-11-01T08:18:27.405Z,9.745650
2022-11-01T08:19:27.414Z,9.745504
2022-11-01T08:20:27.383Z,9.745581
2022-11-01T08:21:27.360Z,9.745106
2022-11-01T08:22:27.356Z,9.745400
2022-11-01T08:23:27.342Z,9.745543
2022-11-01T08:24:27.365Z,9.745582
2022-11-01T08:25:27.327Z,9.745646
2022-11-01T08:26:28.332Z,9.745481
2022-11-01T08:27:29.271Z,9.745536
2022-11-01T08:28:27.309Z,9.745634
2022-11-01T08:29:27.328Z,9.745512
2022-11-01T08:30:27.300Z,9.745402
2022-11-01T08:31:27.285Z,9.745596
2022-11-01T08:32:27.270Z,9.745518
2022-11-01T08:33:27.263Z,9.745495
2022-11-01T08:34:27.285Z,9.745707
2022-11-01T08:35:27.253Z,9.745744
2022-11-01T08:36:27.243Z,9.745426
2022-11-01T08:37:27.245Z,9.745495
2022-11-01T08:38:27.234Z,9.745388
2022-11-01T08:39:27.253Z,9.745625
2022-11-01T08:40:27.209Z,9.745547
2022-11-01T08:41:27.208Z,9.745586
2022-11-01T08:42:27.187Z,9.745775
2022-11-01T08:43:28.188Z,9.745605
2022-11-01T08:44:27.205Z,9.745598
2022-11-01T08:45:27.181Z,9.745458
2022-11-01T08:46:27.163Z,9.745560
2022-11-01T08:47:27.154Z,9.745738
2022-11-01T08:48:27.152Z,9.745506
2022-11-01T08:49:27.176Z,9.745425
2022-11-01T08:50:27.135Z,9.745381
2022-11-01T08:51:27.125Z,9.745644
2022-11-01T08:52:27.117Z,9.745507
2022-11-01T08:53:27.111Z,9.745646
2022-11-01T08:54:27.129Z,9.745350
2022-11-01T08:55:27.181Z,9.745291
2022-11-01T08:56:27.092Z,9.745466
2022-11-01T08:57:27.075Z,9.745535
2022-11-01T08:58:27.068Z,9.745625
2022-11-01T08:59:27.087Z,9.745317
2022-11-01T09:00:27.050Z,9.745588
2022-11-01T09:01:27.267Z,9.745282
2022-11-01T09:02:27.148Z,9.745351
2022-11-01T09:03:27.028Z,9.745654
2022-11-01T09:04:27.044Z,9.745784
2022-11-01T09:05:27.018Z,9.745710
2022-11-01T09:06:28.240Z,9.745557
2022-11-01T09:07:26.991Z,9.745689
2022-11-01T09:08:26.991Z,9.745893
2022-11-01T09:09:27.006Z,9.745744
2022-11-01T09:10:27.001Z,9.745791
2022-11-01T09:11:26.969Z,9.745870
2022-11-01T09:12:27.002Z,9.745684
2022-11-01T09:13:26.949Z,9.745871
2022-11-01T09:14:26.968Z,9.745414
2022-11-01T09:15:26.934Z,9.746177
2022-11-01T09:16:26.922Z,9.744905
2022-11-01T09:17:26.921Z,9.744143
2022-11-01T09:18:26.907Z,9.744412
2022-11-01T09:19:26.934Z,9.746101
2022-11-01T09:20:26.902Z,9.745506
2022-11-01T09:21:31.374Z,9.745692
2022-11-01T09:22:28.876Z,9.745728
2022-11-01T09:23:26.866Z,9.745852
2022-11-01T09:24:26.893Z,9.745646
2022-11-01T09:25:26.856Z,9.745617
2022-11-01T09:26:26.845Z,9.746060
2022-11-01T09:27:26.842Z,9.745980
2022-11-01T09:28:28.955Z,9.745936
2022-11-01T09:29:28.852Z,9.745907
2022-11-01T09:30:26.815Z,9.746075
2022-11-01T09:31:26.806Z,9.746004
2022-11-01T09:32:26.796Z,9.745926
2022-11-01T09:33:26.795Z,9.745743
2022-11-01T09:34:26.811Z,9.746052
2022-11-01T09:35:26.782Z,9.745813
2022-11-01T09:36:26.763Z,9.745708
2022-11-01T09:37:26.756Z,9.745649
2022-11-01T09:38:26.756Z,9.745462
2022-11-01T09:39:26.764Z,9.745525
2022-11-01T09:40:26.727Z,9.745675
2022-11-01T09:41:27.724Z,9.745846
2022-11-01T09:42:26.714Z,9.746033
2022-11-01T09:43:26.711Z,9.745436
2022-11-01T09:44:26.723Z,9.745255
2022-11-01T09:45:26.689Z,9.745565
2022-11-01T09:46:26.698Z,9.745343
2022-11-01T09:47:26.671Z,9.745633
2022-11-01T09:48:26.671Z,9.745313
2022-11-01T09:49:26.682Z,9.745427
2022-11-01T09:50:26.650Z,9.745751
2022-11-01T09:51:26.639Z,9.745607
2022-11-01T09:52:26.638Z,9.745399
2022-11-01T09:53:26.630Z,9.745032
2022-11-01T09:54:26.675Z,9.744975
2022-11-01T09:55:27.620Z,9.745015
2022-11-01T09:56:30.334Z,9.745694
2022-11-01T09:57:27.603Z,9.745568
2022-11-01T09:58:26.586Z,9.745183
2022-11-01T09:59:26.605Z,9.745258
2022-11-01T10:00:26.582Z,9.745261
2022-11-01T10:01:26.655Z,9.744905
2022-11-01T10:02:26.555Z,9.745103
2022-11-01T10:03:26.548Z,9.745008
2022-11-01T10:04:26.577Z,9.744903
2022-11-01T10:05:26.530Z,9.745499
2022-11-01T10:06:26.583Z,9.745399
2022-11-01T10:07:26.515Z,9.745446
2022-11-01T10:08:26.508Z,9.745578
2022-11-01T10:09:26.524Z,9.745422
2022-11-01T10:10:26.496Z,9.745209
2022-11-01T10:11:26.482Z,9.745097
2022-11-01T10:12:26.472Z,9.745222
2022-11-01T10:13:26.452Z,9.744321
2022-11-01T10:14:27.479Z,9.744493
2022-11-01T10:15:26.457Z,9.744611
2022-11-01T10:16:26.444Z,9.744835
2022-11-01T10:17:26.440Z,9.744949
2022-11-01T10:18:26.424Z,9.745074
2022-11-01T10:19:26.454Z,9.744863
2022-11-01T10:20:26.420Z,9.744973
2022-11-01T10:21:29.603Z,9.745085
2022-11-01T10:22:26.394Z,9.745107
2022-11-01T10:23:26.395Z,9.745192
2022-11-01T10:24:27.412Z,9.745236
2022-11-01T10:25:26.383Z,9.744684
2022-11-01T10:26:26.365Z,9.745146
2022-11-01T10:27:26.360Z,9.745216
2022-11-01T10:28:26.354Z,9.745379
2022-11-01T10:29:26.374Z,9.745397
2022-11-01T10:30:26.333Z,9.745367
2022-11-01T10:31:26.324Z,9.745813
2022-11-01T10:32:26.325Z,9.745777
2022-11-01T10:33:26.321Z,9.745382
2022-11-01T10:34:26.334Z,9.745392
2022-11-01T10:35:26.302Z,9.745271
2022-11-01T10:36:26.361Z,9.745367
2022-11-01T10:37:26.280Z,9.745521
2022-11-01T10:38:38.095Z,9.745456
2022-11-01T10:40:00.146Z,9.745506
2022-11-01T10:40:28.255Z,9.745442
2022-11-01T10:41:26.245Z,9.745439
2022-11-01T10:42:26.244Z,9.745514
2022-11-01T10:43:26.230Z,9.745562
2022-11-01T10:44:26.260Z,9.745489
2022-11-01T10:45:26.226Z,9.745466
2022-11-01T10:46:26.209Z,9.745328
2022-11-01T10:47:26.199Z,9.745202
2022-11-01T10:48:26.200Z,9.745224
2022-11-01T10:49:35.024Z,9.745444
2022-11-01T10:50:28.205Z,9.745893
2022-11-01T10:51:27.979Z,9.746068
2022-11-01T10:52:27.162Z,9.745919
2022-11-01T10:53:26.169Z,9.745898
2022-11-01T10:54:26.149Z,9.745748
2022-11-01T10:55:26.165Z,9.745673
2022-11-01T10:56:26.134Z,9.745432
2022-11-01T10:57:26.123Z,9.745347
2022-11-01T10:58:26.122Z,9.745647
2022-11-01T10:59:26.113Z,9.745711
2022-11-01T11:00:26.129Z,9.745665
2022-11-01T11:01:26.212Z,9.745579
2022-11-01T11:02:27.267Z,9.745358
2022-11-01T11:03:26.079Z,9.745772
2022-11-01T11:04:26.064Z,9.745556
2022-11-01T11:05:26.089Z,9.745541
2022-11-01T11:06:26.045Z,9.745495
2022-11-01T11:07:26.043Z,9.745760
2022-11-01T11:08:26.042Z,9.745610
2022-11-01T11:09:27.022Z,9.745371
2022-11-01T11:10:26.060Z,9.745468
2022-11-01T11:11:26.005Z,9.745741
2022-11-01T11:12:26.001Z,9.745655
2022-11-01T11:13:25.998Z,9.746082
2022-11-01T11:14:25.983Z,9.746313
2022-11-01T11:15:26.000Z,9.745588
2022-11-01T11:16:25.971Z,9.745494
2022-11-01T11:17:25.963Z,9.745213
2022-11-01T11:18:25.951Z,9.745083
2022-11-01T11:19:25.961Z,9.745328
2022-11-01T11:20:25.975Z,9.745611
2022-11-01T11:21:28.144Z,9.745493
2022-11-01T11:22:26.927Z,9.745515
2022-11-01T11:23:25.943Z,9.745536
2022-11-01T11:24:25.907Z,9.745536
2022-11-01T11:25:25.923Z,9.745536
2022-11-01T11:26:25.919Z,9.745536
2022-11-01T11:27:25.888Z,9.745536
2022-11-01T11:28:25.871Z,9.746531
2022-11-01T11:29:25.864Z,9.746161
2022-11-01T11:30:25.882Z,9.746511
2022-11-01T11:31:25.874Z,9.746589
2022-11-01T11:32:25.872Z,9.746289
2022-11-01T11:33:25.831Z,9.745605
2022-11-01T11:34:25.830Z,9.744999
2022-11-01T11:35:25.840Z,9.745232
2022-11-01T11:36:25.807Z,9.745019
2022-11-01T11:37:25.801Z,9.744887
2022-11-01T11:38:25.791Z,9.745234
2022-11-01T11:39:25.785Z,9.745274
2022-11-01T11:40:25.800Z,9.745476
2022-11-01T11:41:25.766Z,9.745548
2022-11-01T11:42:25.764Z,9.745773
2022-11-01T11:43:25.757Z,9.748986
2022-11-01T11:44:25.749Z,9.747054
2022-11-01T11:45:25.761Z,9.745887
2022-11-01T11:46:25.729Z,9.745562